Palacios, Texas
Current Conditions -  °F | °C
As of 10:53 PM on Monday 20 Oct 2014 (Local Time) from KPSX Reporting Station
Clear Clear  
Wind Chill: 70°   Ceiling: Unl
Heat Index: 70°   Visibility: 9mi
Dew Point: 66°   Wind: 6mph
Humidity: 87%   Direction: 60°ENE
Pressure: 30.01"   Gusts: NA
Location:  28.71°N, 96.22°W
Report Text: KPSX 210353Z AUTO 06005KT 9SM CLR 21/19 A3001 RMK AO2 SLP161 T02110189
Loading
Personal Weather Stations






























Interactive Weather Map
Tropical Storm Tracking
New forecast layout! Learn more

10-Day Weather Forecast

Advertisements
Track Severe Weather on mobile